PWSweather.com
Personal Weather Stations
Station Observations
270882
Flassian, LimouxFR 11300

FlassianLimouxFR 11300

Lat: 43.071798, Lon: 2.217292

Elevation: 165

Station Type: Oregon WMR 200

http://www.meteolimoux.fr

High Low Average
Temperature 70.7°F21.5°C 57.0°F13.9°C 63.2°F17.3°C
Dew Point 60.1°F15.6°C 52.7°F11.5°C 56.1°F13.4°C
Winds 13.9 mph 22.4 kmh Calm Calm 4.0 mph SW6.4 kmh SW
Wind Gusts 28.6 mph46.0 kmh -- 8.0 mph12.9 kmh
Humidity 90% 55% 78%
Pressure 29.99 in1015.6 mb 29.84 in1010.5 mb -
Precipitation 0.20 in5.1 mm - -
Hour Temp Dew Point Humidity Winds Wind Gusts Pressure Precip Precip Rate Daily Precip Total
12:02 AM 61.2°F16.2°C 56.7°F13.7°C 85% 0.7 mph WSW1.1 kmh WSW 2.9 mph4.7 kmh 29.96 in1014.6 mb - 0.00 in0.0 mm 0.00 in0.0 mm
12:07 AM 61.2°F16.2°C 56.3°F13.5°C 84% 2.2 mph WSW3.5 kmh WSW 5.4 mph8.7 kmh 29.96 in1014.6 mb - 0.00 in0.0 mm 0.00 in0.0 mm
12:12 AM 61.2°F16.2°C 56.3°F13.5°C 84% 1.8 mph WSW2.9 kmh WSW 4.0 mph6.4 kmh 29.96 in1014.6 mb - 0.00 in0.0 mm 0.00 in0.0 mm
12:17 AM 61.3°F16.3°C 56.5°F13.6°C 84% 2.5 mph SW4.0 kmh SW 5.8 mph9.3 kmh 29.96 in1014.6 mb - 0.00 in0.0 mm 0.00 in0.0 mm
12:22 AM 61.3°F16.3°C 56.1°F13.4°C 83% 2.9 mph SW4.7 kmh SW 4.9 mph7.9 kmh 29.93 in1013.5 mb - 0.00 in0.0 mm 0.00 in0.0 mm
12:27 AM 61.5°F16.4°C 56.3°F13.5°C 83% 1.8 mph WSW2.9 kmh WSW 3.6 mph5.8 kmh 29.93 in1013.5 mb - 0.00 in0.0 mm 0.00 in0.0 mm
12:32 AM 61.5°F16.4°C 56.3°F13.5°C 83% 2.5 mph SW4.0 kmh SW 5.4 mph8.7 kmh 29.93 in1013.5 mb - 0.00 in0.0 mm 0.00 in0.0 mm
12:37 AM 61.7°F16.5°C 56.1°F13.4°C 82% 3.6 mph SW5.8 kmh SW 6.5 mph10.5 kmh 29.96 in1014.6 mb - 0.00 in0.0 mm 0.00 in0.0 mm
12:42 AM 61.7°F16.5°C 56.1°F13.4°C 82% 3.6 mph SW5.8 kmh SW 6.3 mph10.1 kmh 29.96 in1014.6 mb - 0.00 in0.0 mm 0.00 in0.0 mm
12:47 AM 61.7°F16.5°C 56.1°F13.4°C 82% 2.9 mph SW4.7 kmh SW 4.9 mph7.9 kmh 29.96 in1014.6 mb - 0.00 in0.0 mm 0.00 in0.0 mm
12:52 AM 61.5°F16.4°C 55.9°F13.3°C 82% 3.8 mph SW6.1 kmh SW 6.0 mph9.7 kmh 29.93 in1013.5 mb - 0.00 in0.0 mm 0.00 in0.0 mm
12:57 AM 61.5°F16.4°C 55.9°F13.3°C 82% 3.4 mph WSW5.5 kmh WSW 4.9 mph7.9 kmh 29.93 in1013.5 mb - 0.00 in0.0 mm 0.00 in0.0 mm
01:02 AM 61.5°F16.4°C 55.6°F13.1°C 81% 2.7 mph SW4.3 kmh SW 5.1 mph8.2 kmh 29.93 in1013.5 mb - 0.00 in0.0 mm 0.00 in0.0 mm
01:07 AM 61.5°F16.4°C 55.6°F13.1°C 81% 2.7 mph SW4.3 kmh SW 4.3 mph6.9 kmh 29.93 in1013.5 mb - 0.00 in0.0 mm 0.00 in0.0 mm
01:12 AM 61.7°F16.5°C 55.4°F13.0°C 80% 2.0 mph SW3.2 kmh SW 4.5 mph7.2 kmh 29.93 in1013.5 mb - 0.00 in0.0 mm 0.00 in0.0 mm
01:17 AM 61.7°F16.5°C 55.4°F13.0°C 80% 2.9 mph WSW4.7 kmh WSW 5.8 mph9.3 kmh 29.93 in1013.5 mb - 0.00 in0.0 mm 0.00 in0.0 mm
01:22 AM 61.7°F16.5°C 55.0°F12.8°C 79% 4.0 mph W6.4 kmh W 6.0 mph9.7 kmh 29.93 in1013.5 mb - 0.00 in0.0 mm 0.00 in0.0 mm
01:27 AM 61.9°F16.6°C 55.2°F12.9°C 79% 4.0 mph WNW6.4 kmh WNW 8.1 mph13.0 kmh 29.93 in1013.5 mb - 0.00 in0.0 mm 0.00 in0.0 mm
01:32 AM 61.9°F16.6°C 55.2°F12.9°C 79% 4.7 mph WNW7.6 kmh WNW 7.4 mph11.9 kmh 29.93 in1013.5 mb - 0.00 in0.0 mm 0.00 in0.0 mm
01:37 AM 61.9°F16.6°C 55.0°F12.8°C 78% 4.0 mph W6.4 kmh W 8.3 mph13.4 kmh 29.93 in1013.5 mb - 0.00 in0.0 mm 0.00 in0.0 mm
01:42 AM 61.7°F16.5°C 54.9°F12.7°C 78% 3.6 mph WNW5.8 kmh WNW 6.7 mph10.8 kmh 29.93 in1013.5 mb - 0.00 in0.0 mm 0.00 in0.0 mm
01:47 AM 61.7°F16.5°C 54.9°F12.7°C 78% 5.1 mph W8.2 kmh W 7.6 mph12.2 kmh 29.93 in1013.5 mb - 0.00 in0.0 mm 0.00 in0.0 mm
01:52 AM 61.7°F16.5°C 55.0°F12.8°C 79% 4.9 mph WNW7.9 kmh WNW 4.9 mph7.9 kmh 29.90 in1012.5 mb - 0.00 in0.0 mm 0.00 in0.0 mm
01:57 AM 61.5°F16.4°C 55.0°F12.8°C 79% 3.4 mph W5.5 kmh W 6.5 mph10.5 kmh 29.90 in1012.5 mb - 0.00 in0.0 mm 0.00 in0.0 mm
02:02 AM 61.5°F16.4°C 55.0°F12.8°C 79% 1.8 mph SW2.9 kmh SW 5.6 mph9.0 kmh 29.90 in1012.5 mb - 0.00 in0.0 mm 0.00 in0.0 mm
02:07 AM 61.3°F16.3°C 54.9°F12.7°C 79% 1.3 mph WSW2.1 kmh WSW 4.3 mph6.9 kmh 29.90 in1012.5 mb - 0.00 in0.0 mm 0.00 in0.0 mm
02:12 AM 61.3°F16.3°C 54.9°F12.7°C 79% Calm Calm -- 29.90 in1012.5 mb - 0.00 in0.0 mm 0.00 in0.0 mm
02:17 AM 61.2°F16.2°C 54.9°F12.7°C 80% Calm Calm -- 29.90 in1012.5 mb - 0.00 in0.0 mm 0.00 in0.0 mm
02:22 AM 61.0°F16.1°C 54.9°F12.7°C 80% Calm Calm -- 29.93 in1013.5 mb - 0.00 in0.0 mm 0.00 in0.0 mm
02:27 AM 61.0°F16.1°C 55.4°F13.0°C 82% Calm Calm -- 29.93 in1013.5 mb - 0.00 in0.0 mm 0.00 in0.0 mm
02:32 AM 60.8°F16.0°C 55.2°F12.9°C 82% Calm Calm -- 29.93 in1013.5 mb - 0.00 in0.0 mm 0.00 in0.0 mm
02:37 AM 60.6°F15.9°C 55.0°F12.8°C 82% Calm Calm -- 29.93 in1013.5 mb - 0.00 in0.0 mm 0.00 in0.0 mm
02:42 AM 60.6°F15.9°C 55.0°F12.8°C 82% 0.7 mph SW1.1 kmh SW 2.2 mph3.5 kmh 29.93 in1013.5 mb - 0.00 in0.0 mm 0.00 in0.0 mm
02:47 AM 60.6°F15.9°C 55.0°F12.8°C 82% 1.8 mph W2.9 kmh W 4.0 mph6.4 kmh 29.93 in1013.5 mb - 0.00 in0.0 mm 0.00 in0.0 mm
02:52 AM 60.6°F15.9°C 55.0°F12.8°C 82% 3.6 mph W5.8 kmh W 5.8 mph9.3 kmh 29.93 in1013.5 mb - 0.00 in0.0 mm 0.00 in0.0 mm
02:57 AM 60.4°F15.8°C 54.9°F12.7°C 82% 2.9 mph WSW4.7 kmh WSW 4.5 mph7.2 kmh 29.93 in1013.5 mb - 0.00 in0.0 mm 0.00 in0.0 mm
03:02 AM 60.3°F15.7°C 54.7°F12.6°C 82% 1.3 mph SW2.1 kmh SW 3.8 mph6.1 kmh 29.93 in1013.5 mb - 0.00 in0.0 mm 0.00 in0.0 mm
03:07 AM 60.3°F15.7°C 54.7°F12.6°C 82% 0.9 mph SSW1.4 kmh SSW 2.9 mph4.7 kmh 29.93 in1013.5 mb - 0.00 in0.0 mm 0.00 in0.0 mm
03:12 AM 60.1°F15.6°C 54.5°F12.5°C 82% 1.6 mph SW2.6 kmh SW 3.1 mph5.0 kmh 29.93 in1013.5 mb - 0.00 in0.0 mm 0.00 in0.0 mm
03:17 AM 60.1°F15.6°C 54.5°F12.5°C 82% 0.7 mph WSW1.1 kmh WSW 2.0 mph3.2 kmh 29.93 in1013.5 mb - 0.00 in0.0 mm 0.00 in0.0 mm
03:22 AM 59.9°F15.5°C 54.3°F12.4°C 82% 0.2 mph SSW0.3 kmh SSW 1.3 mph2.1 kmh 29.93 in1013.5 mb - 0.00 in0.0 mm 0.00 in0.0 mm
03:27 AM 59.9°F15.5°C 54.7°F12.6°C 83% 0.4 mph SW0.6 kmh SW 2.5 mph4.0 kmh 29.93 in1013.5 mb - 0.00 in0.0 mm 0.00 in0.0 mm
03:32 AM 59.7°F15.4°C 54.5°F12.5°C 83% Calm Calm -- 29.93 in1013.5 mb - 0.00 in0.0 mm 0.00 in0.0 mm
03:37 AM 59.5°F15.3°C 54.3°F12.4°C 83% Calm Calm -- 29.93 in1013.5 mb - 0.00 in0.0 mm 0.00 in0.0 mm
03:42 AM 59.2°F15.1°C 54.0°F12.2°C 83% 1.1 mph N1.8 kmh N 2.7 mph4.3 kmh 29.93 in1013.5 mb - 0.00 in0.0 mm 0.00 in0.0 mm
03:47 AM 59.0°F15.0°C 53.8°F12.1°C 83% Calm Calm -- 29.93 in1013.5 mb - 0.00 in0.0 mm 0.00 in0.0 mm
03:52 AM 58.8°F14.9°C 53.6°F12.0°C 83% Calm Calm -- 29.90 in1012.5 mb - 0.00 in0.0 mm 0.00 in0.0 mm
03:57 AM 58.6°F14.8°C 53.8°F12.1°C 84% Calm Calm -- 29.90 in1012.5 mb - 0.00 in0.0 mm 0.00 in0.0 mm
04:02 AM 58.5°F14.7°C 54.0°F12.2°C 85% Calm Calm -- 29.90 in1012.5 mb - 0.00 in0.0 mm 0.00 in0.0 mm
04:07 AM 58.3°F14.6°C 53.8°F12.1°C 85% Calm Calm -- 29.90 in1012.5 mb - 0.00 in0.0 mm 0.00 in0.0 mm
04:12 AM 58.3°F14.6°C 53.8°F12.1°C 85% Calm Calm -- 29.90 in1012.5 mb - 0.00 in0.0 mm 0.00 in0.0 mm
04:17 AM 57.9°F14.4°C 53.4°F11.9°C 85% Calm Calm -- 29.90 in1012.5 mb - 0.00 in0.0 mm 0.00 in0.0 mm
04:22 AM 57.7°F14.3°C 53.2°F11.8°C 85% Calm Calm -- 29.90 in1012.5 mb - 0.00 in0.0 mm 0.00 in0.0 mm
04:27 AM 57.7°F14.3°C 53.2°F11.8°C 85% Calm Calm -- 29.90 in1012.5 mb - 0.00 in0.0 mm 0.00 in0.0 mm
04:32 AM 57.7°F14.3°C 53.6°F12.0°C 86% Calm Calm -- 29.90 in1012.5 mb - 0.00 in0.0 mm 0.00 in0.0 mm
04:37 AM 57.7°F14.3°C 53.6°F12.0°C 86% 1.1 mph N1.8 kmh N 2.9 mph4.7 kmh 29.90 in1012.5 mb - 0.00 in0.0 mm 0.00 in0.0 mm
04:42 AM 57.7°F14.3°C 53.6°F12.0°C 86% 0.4 mph SW0.6 kmh SW 2.0 mph3.2 kmh 29.90 in1012.5 mb - 0.00 in0.0 mm 0.00 in0.0 mm
04:47 AM 57.7°F14.3°C 54.0°F12.2°C 87% Calm Calm -- 29.90 in1012.5 mb - 0.00 in0.0 mm 0.00 in0.0 mm
04:52 AM 57.7°F14.3°C 54.1°F12.3°C 88% 0.9 mph SW1.4 kmh SW 3.4 mph5.5 kmh 29.90 in1012.5 mb - 0.00 in0.0 mm 0.00 in0.0 mm
04:57 AM 57.9°F14.4°C 54.3°F12.4°C 88% 1.6 mph SW2.6 kmh SW 3.6 mph5.8 kmh 29.90 in1012.5 mb - 0.00 in0.0 mm 0.00 in0.0 mm
05:02 AM 57.9°F14.4°C 54.3°F12.4°C 88% 0.7 mph WSW1.1 kmh WSW 1.8 mph2.9 kmh 29.90 in1012.5 mb - 0.00 in0.0 mm 0.00 in0.0 mm
05:07 AM 58.1°F14.5°C 54.5°F12.5°C 88% Calm Calm -- 29.90 in1012.5 mb - 0.00 in0.0 mm 0.00 in0.0 mm
05:12 AM 58.1°F14.5°C 54.5°F12.5°C 88% Calm Calm -- 29.90 in1012.5 mb - 0.00 in0.0 mm 0.00 in0.0 mm
05:17 AM 57.9°F14.4°C 54.3°F12.4°C 88% Calm Calm -- 29.90 in1012.5 mb - 0.00 in0.0 mm 0.00 in0.0 mm
05:22 AM 57.7°F14.3°C 54.1°F12.3°C 88% Calm Calm -- 29.87 in1011.5 mb - 0.00 in0.0 mm 0.00 in0.0 mm
05:27 AM 57.6°F14.2°C 54.0°F12.2°C 88% Calm Calm -- 29.87 in1011.5 mb - 0.00 in0.0 mm 0.00 in0.0 mm
05:32 AM 57.4°F14.1°C 53.8°F12.1°C 88% Calm Calm -- 29.87 in1011.5 mb - 0.00 in0.0 mm 0.00 in0.0 mm
05:37 AM 57.2°F14.0°C 53.6°F12.0°C 88% Calm Calm -- 29.87 in1011.5 mb - 0.00 in0.0 mm 0.00 in0.0 mm
05:42 AM 57.2°F14.0°C 53.6°F12.0°C 88% 1.6 mph S2.6 kmh S 2.5 mph4.0 kmh 29.87 in1011.5 mb - 0.00 in0.0 mm 0.00 in0.0 mm
05:47 AM 57.0°F13.9°C 53.4°F11.9°C 88% 1.3 mph SSE2.1 kmh SSE 1.3 mph2.1 kmh 29.87 in1011.5 mb - 0.00 in0.0 mm 0.00 in0.0 mm
05:52 AM 57.2°F14.0°C 53.6°F12.0°C 88% Calm Calm -- 29.87 in1011.5 mb - 0.00 in0.0 mm 0.00 in0.0 mm
05:57 AM 57.2°F14.0°C 53.6°F12.0°C 88% Calm Calm -- 29.87 in1011.5 mb - 0.00 in0.0 mm 0.00 in0.0 mm
06:02 AM 57.2°F14.0°C 54.0°F12.2°C 89% Calm Calm -- 29.87 in1011.5 mb - 0.00 in0.0 mm 0.00 in0.0 mm
06:07 AM 57.4°F14.1°C 54.1°F12.3°C 89% Calm Calm -- 29.84 in1010.5 mb - 0.00 in0.0 mm 0.00 in0.0 mm
06:12 AM 57.4°F14.1°C 54.1°F12.3°C 89% Calm Calm -- 29.84 in1010.5 mb - 0.00 in0.0 mm 0.00 in0.0 mm
06:17 AM 57.6°F14.2°C 54.3°F12.4°C 89% Calm Calm -- 29.84 in1010.5 mb - 0.00 in0.0 mm 0.00 in0.0 mm
06:22 AM 57.7°F14.3°C 54.5°F12.5°C 89% Calm Calm -- 29.87 in1011.5 mb - 0.00 in0.0 mm 0.00 in0.0 mm
06:27 AM 57.9°F14.4°C 55.0°F12.8°C 90% Calm Calm -- 29.87 in1011.5 mb - 0.00 in0.0 mm 0.00 in0.0 mm
06:32 AM 58.1°F14.5°C 55.2°F12.9°C 90% 0.4 mph S0.6 kmh S 2.7 mph4.3 kmh 29.87 in1011.5 mb - 0.00 in0.0 mm 0.00 in0.0 mm
06:37 AM 58.3°F14.6°C 55.4°F13.0°C 90% 0.9 mph SE1.4 kmh SE 0.9 mph1.4 kmh 29.84 in1010.5 mb - 0.00 in0.0 mm 0.00 in0.0 mm
06:42 AM 58.6°F14.8°C 55.8°F13.2°C 90% 1.1 mph SW1.8 kmh SW 2.5 mph4.0 kmh 29.84 in1010.5 mb - 0.00 in0.0 mm 0.00 in0.0 mm
06:47 AM 59.2°F15.1°C 56.3°F13.5°C 90% 0.4 mph SW0.6 kmh SW 2.9 mph4.7 kmh 29.84 in1010.5 mb - 0.00 in0.0 mm 0.00 in0.0 mm
06:52 AM 59.9°F15.5°C 57.0°F13.9°C 90% 1.8 mph SW2.9 kmh SW 3.6 mph5.8 kmh 29.87 in1011.5 mb - 0.00 in0.0 mm 0.00 in0.0 mm
06:57 AM 60.3°F15.7°C 57.4°F14.1°C 90% 0.2 mph SW0.3 kmh SW 1.8 mph2.9 kmh 29.87 in1011.5 mb - 0.00 in0.0 mm 0.00 in0.0 mm
07:02 AM 60.6°F15.9°C 57.7°F14.3°C 90% Calm Calm -- 29.87 in1011.5 mb - 0.00 in0.0 mm 0.00 in0.0 mm
07:07 AM 61.0°F16.1°C 57.7°F14.3°C 89% Calm Calm -- 29.87 in1011.5 mb - 0.00 in0.0 mm 0.00 in0.0 mm
07:12 AM 61.5°F16.4°C 58.3°F14.6°C 89% 1.8 mph SW2.9 kmh SW 3.1 mph5.0 kmh 29.87 in1011.5 mb - 0.00 in0.0 mm 0.00 in0.0 mm
07:17 AM 62.1°F16.7°C 58.8°F14.9°C 89% 1.3 mph SW2.1 kmh SW 2.7 mph4.3 kmh 29.87 in1011.5 mb - 0.00 in0.0 mm 0.00 in0.0 mm
07:22 AM 62.6°F17.0°C 59.0°F15.0°C 88% Calm Calm -- 29.87 in1011.5 mb - 0.00 in0.0 mm 0.00 in0.0 mm
07:27 AM 63.3°F17.4°C 58.8°F14.9°C 85% 0.4 mph SSW0.6 kmh SSW 2.2 mph3.5 kmh 29.87 in1011.5 mb - 0.00 in0.0 mm 0.00 in0.0 mm
07:32 AM 63.9°F17.7°C 59.0°F15.0°C 84% 0.9 mph S1.4 kmh S 2.5 mph4.0 kmh 29.87 in1011.5 mb - 0.00 in0.0 mm 0.00 in0.0 mm
07:37 AM 63.7°F17.6°C 57.0°F13.9°C 79% Calm Calm -- 29.87 in1011.5 mb - 0.00 in0.0 mm 0.00 in0.0 mm
07:42 AM 63.9°F17.7°C 56.8°F13.8°C 78% 0.2 mph SW0.3 kmh SW 4.5 mph7.2 kmh 29.87 in1011.5 mb - 0.00 in0.0 mm 0.00 in0.0 mm
07:47 AM 64.2°F17.9°C 57.2°F14.0°C 78% 1.3 mph NW2.1 kmh NW 5.4 mph8.7 kmh 29.87 in1011.5 mb - 0.00 in0.0 mm 0.00 in0.0 mm
07:52 AM 64.6°F18.1°C 57.2°F14.0°C 77% 1.6 mph NNW2.6 kmh NNW 4.7 mph7.6 kmh 29.87 in1011.5 mb - 0.00 in0.0 mm 0.00 in0.0 mm
07:57 AM 65.1°F18.4°C 57.7°F14.3°C 77% 1.8 mph N2.9 kmh N 4.0 mph6.4 kmh 29.87 in1011.5 mb - 0.00 in0.0 mm 0.00 in0.0 mm
08:02 AM 65.3°F18.5°C 57.6°F14.2°C 76% 1.8 mph NNW2.9 kmh NNW 5.8 mph9.3 kmh 29.87 in1011.5 mb - 0.00 in0.0 mm 0.00 in0.0 mm
08:07 AM 65.3°F18.5°C 57.6°F14.2°C 76% 0.7 mph NW1.1 kmh NW 4.9 mph7.9 kmh 29.87 in1011.5 mb - 0.00 in0.0 mm 0.00 in0.0 mm
08:12 AM 65.3°F18.5°C 56.8°F13.8°C 74% 1.6 mph NW2.6 kmh NW 6.3 mph10.1 kmh 29.87 in1011.5 mb - 0.00 in0.0 mm 0.00 in0.0 mm
08:17 AM 65.5°F18.6°C 56.3°F13.5°C 72% 1.8 mph NW2.9 kmh NW 5.1 mph8.2 kmh 29.87 in1011.5 mb - 0.00 in0.0 mm 0.00 in0.0 mm
08:22 AM 64.8°F18.2°C 55.2°F12.9°C 71% 0.4 mph WNW0.6 kmh WNW 5.4 mph8.7 kmh 29.87 in1011.5 mb - 0.00 in0.0 mm 0.00 in0.0 mm
08:27 AM 64.9°F18.3°C 56.1°F13.4°C 73% 3.4 mph NNW5.5 kmh NNW 6.3 mph10.1 kmh 29.87 in1011.5 mb - 0.00 in0.0 mm 0.00 in0.0 mm
08:32 AM 65.7°F18.7°C 56.8°F13.8°C 73% 0.2 mph NW0.3 kmh NW 3.1 mph5.0 kmh 29.87 in1011.5 mb - 0.00 in0.0 mm 0.00 in0.0 mm
08:37 AM 66.2°F19.0°C 55.8°F13.2°C 69% Calm Calm -- 29.84 in1010.5 mb - 0.00 in0.0 mm 0.00 in0.0 mm
08:42 AM 65.8°F18.8°C 55.8°F13.2°C 70% Calm Calm -- 29.84 in1010.5 mb - 0.00 in0.0 mm 0.00 in0.0 mm
08:47 AM 66.6°F19.2°C 56.5°F13.6°C 70% 2.0 mph ENE3.2 kmh ENE 5.4 mph8.7 kmh 29.84 in1010.5 mb - 0.00 in0.0 mm 0.00 in0.0 mm
08:52 AM 67.1°F19.5°C 57.0°F13.9°C 70% 1.1 mph SE1.8 kmh SE 4.0 mph6.4 kmh 29.84 in1010.5 mb - 0.00 in0.0 mm 0.00 in0.0 mm
08:57 AM 67.5°F19.7°C 57.4°F14.1°C 70% 1.1 mph ENE1.8 kmh ENE 3.8 mph6.1 kmh 29.84 in1010.5 mb - 0.00 in0.0 mm 0.00 in0.0 mm
09:02 AM 67.5°F19.7°C 56.1°F13.4°C 67% 0.4 mph S0.6 kmh S 2.9 mph4.7 kmh 29.84 in1010.5 mb - 0.00 in0.0 mm 0.00 in0.0 mm
09:07 AM 67.6°F19.8°C 56.3°F13.5°C 67% 1.1 mph WNW1.8 kmh WNW 4.5 mph7.2 kmh 29.84 in1010.5 mb - 0.00 in0.0 mm 0.00 in0.0 mm
09:12 AM 67.6°F19.8°C 55.9°F13.3°C 66% 1.3 mph WSW2.1 kmh WSW 5.1 mph8.2 kmh 29.84 in1010.5 mb - 0.00 in0.0 mm 0.00 in0.0 mm
09:17 AM 68.0°F20.0°C 56.7°F13.7°C 67% 0.9 mph WNW1.4 kmh WNW 3.8 mph6.1 kmh 29.84 in1010.5 mb - 0.00 in0.0 mm 0.00 in0.0 mm
09:22 AM 68.0°F20.0°C 56.7°F13.7°C 67% 0.7 mph NW1.1 kmh NW 3.6 mph5.8 kmh 29.84 in1010.5 mb - 0.00 in0.0 mm 0.00 in0.0 mm
09:27 AM 66.9°F19.4°C 54.3°F12.4°C 64% 2.0 mph NNW3.2 kmh NNW 5.4 mph8.7 kmh 29.84 in1010.5 mb - 0.00 in0.0 mm 0.00 in0.0 mm
09:32 AM 66.9°F19.4°C 55.2°F12.9°C 66% 0.7 mph NW1.1 kmh NW 4.3 mph6.9 kmh 29.84 in1010.5 mb - 0.00 in0.0 mm 0.00 in0.0 mm
09:37 AM 67.5°F19.7°C 56.1°F13.4°C 67% 3.1 mph WNW5.0 kmh WNW 7.2 mph11.6 kmh 29.84 in1010.5 mb - 0.00 in0.0 mm 0.00 in0.0 mm
09:42 AM 67.5°F19.7°C 54.5°F12.5°C 63% 1.3 mph WNW2.1 kmh WNW 4.3 mph6.9 kmh 29.84 in1010.5 mb - 0.00 in0.0 mm 0.00 in0.0 mm
09:47 AM 67.3°F19.6°C 52.9°F11.6°C 60% Calm Calm -- 29.84 in1010.5 mb - 0.00 in0.0 mm 0.00 in0.0 mm
09:52 AM 67.5°F19.7°C 53.6°F12.0°C 61% 2.9 mph W4.7 kmh W 6.9 mph11.1 kmh 29.84 in1010.5 mb - 0.00 in0.0 mm 0.00 in0.0 mm
09:57 AM 68.4°F20.2°C 54.9°F12.7°C 62% 2.9 mph NW4.7 kmh NW 6.7 mph10.8 kmh 29.84 in1010.5 mb - 0.00 in0.0 mm 0.00 in0.0 mm
10:02 AM 68.7°F20.4°C 53.8°F12.1°C 59% 2.0 mph N3.2 kmh N 2.0 mph3.2 kmh 29.84 in1010.5 mb - 0.00 in0.0 mm 0.00 in0.0 mm
10:07 AM 68.4°F20.2°C 54.0°F12.2°C 60% 3.1 mph N5.0 kmh N 6.3 mph10.1 kmh 29.84 in1010.5 mb - 0.00 in0.0 mm 0.00 in0.0 mm
10:12 AM 68.9°F20.5°C 54.0°F12.2°C 59% 1.3 mph ESE2.1 kmh ESE 3.6 mph5.8 kmh 29.84 in1010.5 mb - 0.00 in0.0 mm 0.00 in0.0 mm
10:17 AM 69.3°F20.7°C 54.3°F12.4°C 59% Calm Calm 2.2 mph3.5 kmh 29.84 in1010.5 mb - 0.00 in0.0 mm 0.00 in0.0 mm
10:22 AM 70.0°F21.1°C 55.0°F12.8°C 59% 3.1 mph NW5.0 kmh NW 8.3 mph13.4 kmh 29.84 in1010.5 mb - 0.00 in0.0 mm 0.00 in0.0 mm
10:27 AM 70.5°F21.4°C 54.5°F12.5°C 57% 2.7 mph NW4.3 kmh NW 2.7 mph4.3 kmh 29.84 in1010.5 mb - 0.00 in0.0 mm 0.00 in0.0 mm
10:32 AM 70.7°F21.5°C 54.3°F12.4°C 56% 4.0 mph N6.4 kmh N 8.5 mph13.7 kmh 29.84 in1010.5 mb - 0.00 in0.0 mm 0.00 in0.0 mm
10:37 AM 70.5°F21.4°C 53.6°F12.0°C 55% 6.7 mph NNW10.8 kmh NNW 11.9 mph19.2 kmh 29.87 in1011.5 mb - 0.00 in0.0 mm 0.00 in0.0 mm
10:42 AM 70.0°F21.1°C 53.1°F11.7°C 55% 3.6 mph NW5.8 kmh NW 7.2 mph11.6 kmh 29.87 in1011.5 mb - 0.00 in0.0 mm 0.00 in0.0 mm
10:47 AM 70.0°F21.1°C 53.6°F12.0°C 56% 2.5 mph N4.0 kmh N 5.4 mph8.7 kmh 29.87 in1011.5 mb - 0.00 in0.0 mm 0.00 in0.0 mm
10:52 AM 69.8°F21.0°C 53.4°F11.9°C 56% 2.2 mph W3.5 kmh W 5.1 mph8.2 kmh 29.87 in1011.5 mb - 0.00 in0.0 mm 0.00 in0.0 mm
10:57 AM 69.4°F20.8°C 53.1°F11.7°C 56% 0.9 mph NNW1.4 kmh NNW 4.7 mph7.6 kmh 29.87 in1011.5 mb - 0.00 in0.0 mm 0.00 in0.0 mm
11:02 AM 69.1°F20.6°C 52.7°F11.5°C 56% 4.0 mph NNW6.4 kmh NNW 6.7 mph10.8 kmh 29.87 in1011.5 mb - 0.00 in0.0 mm 0.00 in0.0 mm
11:07 AM 68.7°F20.4°C 52.9°F11.6°C 57% 2.0 mph W3.2 kmh W 4.7 mph7.6 kmh 29.87 in1011.5 mb - 0.00 in0.0 mm 0.00 in0.0 mm
11:12 AM 68.0°F20.0°C 53.1°F11.7°C 59% 2.7 mph W4.3 kmh W 8.1 mph13.0 kmh 29.87 in1011.5 mb - 0.00 in0.0 mm 0.00 in0.0 mm
11:17 AM 67.5°F19.7°C 54.0°F12.2°C 62% 3.4 mph NW5.5 kmh NW 6.7 mph10.8 kmh 29.87 in1011.5 mb - 0.00 in0.0 mm 0.00 in0.0 mm
11:22 AM 66.7°F19.3°C 54.7°F12.6°C 65% 4.0 mph WNW6.4 kmh WNW 9.4 mph15.1 kmh 29.87 in1011.5 mb - 0.00 in0.0 mm 0.00 in0.0 mm
11:27 AM 66.0°F18.9°C 54.3°F12.4°C 66% 4.9 mph WNW7.9 kmh WNW 7.8 mph12.6 kmh 29.87 in1011.5 mb - 0.00 in0.0 mm 0.00 in0.0 mm
11:32 AM 65.7°F18.7°C 55.2°F12.9°C 69% 6.5 mph NW10.5 kmh NW 10.7 mph17.2 kmh 29.87 in1011.5 mb - 0.00 in0.0 mm 0.00 in0.0 mm
11:37 AM 65.3°F18.5°C 55.6°F13.1°C 71% 6.3 mph NW10.1 kmh NW 10.1 mph16.3 kmh 29.87 in1011.5 mb - 0.00 in0.0 mm 0.00 in0.0 mm
11:42 AM 64.8°F18.2°C 55.6°F13.1°C 72% 4.7 mph NW7.6 kmh NW 8.1 mph13.0 kmh 29.87 in1011.5 mb - 0.00 in0.0 mm 0.00 in0.0 mm
11:47 AM 64.8°F18.2°C 55.9°F13.3°C 73% 4.5 mph NW7.2 kmh NW 6.7 mph10.8 kmh 29.87 in1011.5 mb - 0.00 in0.0 mm 0.00 in0.0 mm
11:52 AM 64.8°F18.2°C 56.3°F13.5°C 74% 4.3 mph NW6.9 kmh NW 7.2 mph11.6 kmh 29.87 in1011.5 mb - 0.00 in0.0 mm 0.04 in1.0 mm
11:57 AM 64.8°F18.2°C 57.0°F13.9°C 76% 3.1 mph WNW5.0 kmh WNW 5.1 mph8.2 kmh 29.87 in1011.5 mb - 0.00 in0.0 mm 0.04 in1.0 mm
12:02 PM 64.9°F18.3°C 57.9°F14.4°C 78% 2.5 mph WNW4.0 kmh WNW 5.4 mph8.7 kmh 29.87 in1011.5 mb - 0.00 in0.0 mm 0.04 in1.0 mm
12:07 PM 65.1°F18.4°C 58.1°F14.5°C 78% 3.1 mph W5.0 kmh W 6.0 mph9.7 kmh 29.87 in1011.5 mb - 0.00 in0.0 mm 0.04 in1.0 mm
12:12 PM 65.1°F18.4°C 58.5°F14.7°C 79% 3.6 mph NW5.8 kmh NW 6.5 mph10.5 kmh 29.87 in1011.5 mb - 0.00 in0.0 mm 0.04 in1.0 mm
12:17 PM 65.3°F18.5°C 58.6°F14.8°C 79% 3.1 mph NW5.0 kmh NW 5.8 mph9.3 kmh 29.87 in1011.5 mb - 0.00 in0.0 mm 0.04 in1.0 mm
12:22 PM 65.3°F18.5°C 58.3°F14.6°C 78% 3.1 mph NW5.0 kmh NW 6.5 mph10.5 kmh 29.87 in1011.5 mb - 0.00 in0.0 mm 0.04 in1.0 mm
12:27 PM 65.3°F18.5°C 58.3°F14.6°C 78% 1.6 mph NNW2.6 kmh NNW 4.0 mph6.4 kmh 29.87 in1011.5 mb - 0.00 in0.0 mm 0.04 in1.0 mm
12:32 PM 65.3°F18.5°C 58.3°F14.6°C 78% 2.7 mph W4.3 kmh W 7.2 mph11.6 kmh 29.87 in1011.5 mb - 0.00 in0.0 mm 0.04 in1.0 mm
12:37 PM 65.5°F18.6°C 59.2°F15.1°C 80% Calm Calm -- 29.87 in1011.5 mb - 0.00 in0.0 mm 0.04 in1.0 mm
12:42 PM 65.3°F18.5°C 59.4°F15.2°C 81% 0.9 mph WNW1.4 kmh WNW 2.7 mph4.3 kmh 29.87 in1011.5 mb - 0.00 in0.0 mm 0.04 in1.0 mm
12:47 PM 65.7°F18.7°C 59.7°F15.4°C 81% 2.0 mph N3.2 kmh N 4.9 mph7.9 kmh 29.87 in1011.5 mb - 0.00 in0.0 mm 0.04 in1.0 mm
12:52 PM 66.0°F18.9°C 60.1°F15.6°C 81% 3.8 mph N6.1 kmh N 5.8 mph9.3 kmh 29.84 in1010.5 mb - 0.00 in0.0 mm 0.04 in1.0 mm
12:57 PM 66.2°F19.0°C 59.9°F15.5°C 80% 1.3 mph NW2.1 kmh NW 4.3 mph6.9 kmh 29.84 in1010.5 mb - 0.00 in0.0 mm 0.04 in1.0 mm
01:02 PM 66.2°F19.0°C 59.2°F15.1°C 78% 1.3 mph WNW2.1 kmh WNW 3.1 mph5.0 kmh 29.84 in1010.5 mb - 0.00 in0.0 mm 0.04 in1.0 mm
01:07 PM 66.2°F19.0°C 58.8°F14.9°C 77% 2.5 mph WNW4.0 kmh WNW 6.5 mph10.5 kmh 29.87 in1011.5 mb - 0.00 in0.0 mm 0.04 in1.0 mm
01:12 PM 66.2°F19.0°C 58.8°F14.9°C 77% 2.0 mph NW3.2 kmh NW 4.3 mph6.9 kmh 29.87 in1011.5 mb - 0.00 in0.0 mm 0.04 in1.0 mm
01:17 PM 66.4°F19.1°C 59.0°F15.0°C 77% 2.5 mph NW4.0 kmh NW 5.4 mph8.7 kmh 29.87 in1011.5 mb - 0.00 in0.0 mm 0.04 in1.0 mm
01:22 PM 66.2°F19.0°C 58.8°F14.9°C 77% 2.5 mph NW4.0 kmh NW 6.0 mph9.7 kmh 29.87 in1011.5 mb - 0.00 in0.0 mm 0.04 in1.0 mm
01:27 PM 66.0°F18.9°C 59.0°F15.0°C 78% 2.2 mph NW3.5 kmh NW 5.8 mph9.3 kmh 29.87 in1011.5 mb - 0.00 in0.0 mm 0.04 in1.0 mm
01:32 PM 65.7°F18.7°C 57.9°F14.4°C 76% 5.4 mph NW8.7 kmh NW 8.1 mph13.0 kmh 29.87 in1011.5 mb - 0.00 in0.0 mm 0.04 in1.0 mm
01:37 PM 65.7°F18.7°C 57.9°F14.4°C 76% 5.6 mph NW9.0 kmh NW 10.1 mph16.3 kmh 29.84 in1010.5 mb - 0.00 in0.0 mm 0.04 in1.0 mm
01:42 PM 65.7°F18.7°C 57.9°F14.4°C 76% 5.4 mph NW8.7 kmh NW 8.5 mph13.7 kmh 29.84 in1010.5 mb - 0.00 in0.0 mm 0.04 in1.0 mm
01:47 PM 65.8°F18.8°C 58.5°F14.7°C 77% 4.7 mph NW7.6 kmh NW 8.1 mph13.0 kmh 29.84 in1010.5 mb - 0.00 in0.0 mm 0.04 in1.0 mm
01:52 PM 66.0°F18.9°C 58.6°F14.8°C 77% 2.9 mph NW4.7 kmh NW 8.3 mph13.4 kmh 29.87 in1011.5 mb - 0.00 in0.0 mm 0.04 in1.0 mm
01:57 PM 66.0°F18.9°C 58.6°F14.8°C 77% 2.9 mph NW4.7 kmh NW 6.5 mph10.5 kmh 29.87 in1011.5 mb - 0.00 in0.0 mm 0.04 in1.0 mm
02:02 PM 65.8°F18.8°C 58.5°F14.7°C 77% 2.2 mph NNE3.5 kmh NNE 6.7 mph10.8 kmh 29.87 in1011.5 mb - 0.00 in0.0 mm 0.04 in1.0 mm
02:07 PM 66.2°F19.0°C 58.5°F14.7°C 76% 4.0 mph NW6.4 kmh NW 7.4 mph11.9 kmh 29.84 in1010.5 mb - 0.00 in0.0 mm 0.04 in1.0 mm
02:12 PM 66.2°F19.0°C 57.7°F14.3°C 74% 3.6 mph NW5.8 kmh NW 7.2 mph11.6 kmh 29.84 in1010.5 mb - 0.00 in0.0 mm 0.04 in1.0 mm
02:17 PM 66.2°F19.0°C 56.8°F13.8°C 72% 3.1 mph W5.0 kmh W 6.5 mph10.5 kmh 29.84 in1010.5 mb - 0.00 in0.0 mm 0.04 in1.0 mm
02:22 PM 66.2°F19.0°C 57.4°F14.1°C 73% 3.1 mph NW5.0 kmh NW 7.2 mph11.6 kmh 29.87 in1011.5 mb - 0.00 in0.0 mm 0.04 in1.0 mm
02:27 PM 66.4°F19.1°C 57.9°F14.4°C 74% 4.0 mph WNW6.4 kmh WNW 7.6 mph12.2 kmh 29.87 in1011.5 mb - 0.00 in0.0 mm 0.04 in1.0 mm
02:32 PM 66.2°F19.0°C 58.1°F14.5°C 75% 2.9 mph NW4.7 kmh NW 6.7 mph10.8 kmh 29.87 in1011.5 mb - 0.00 in0.0 mm 0.04 in1.0 mm
02:37 PM 66.0°F18.9°C 58.6°F14.8°C 77% 2.5 mph NW4.0 kmh NW 5.1 mph8.2 kmh 29.87 in1011.5 mb - 0.00 in0.0 mm 0.04 in1.0 mm
02:42 PM 65.7°F18.7°C 58.6°F14.8°C 78% 3.4 mph NW5.5 kmh NW 5.4 mph8.7 kmh 29.87 in1011.5 mb - 0.00 in0.0 mm 0.04 in1.0 mm
02:47 PM 64.9°F18.3°C 56.8°F13.8°C 75% 2.0 mph NW3.2 kmh NW 4.3 mph6.9 kmh 29.87 in1011.5 mb - 0.00 in0.0 mm 0.04 in1.0 mm
02:52 PM 64.9°F18.3°C 57.2°F14.0°C 76% 2.7 mph WNW4.3 kmh WNW 7.4 mph11.9 kmh 29.84 in1010.5 mb - 0.00 in0.0 mm 0.04 in1.0 mm
02:57 PM 65.1°F18.4°C 58.1°F14.5°C 78% 4.3 mph WNW6.9 kmh WNW 6.9 mph11.1 kmh 29.84 in1010.5 mb - 0.00 in0.0 mm 0.04 in1.0 mm
03:02 PM 65.1°F18.4°C 58.5°F14.7°C 79% 4.0 mph WNW6.4 kmh WNW 6.7 mph10.8 kmh 29.84 in1010.5 mb - 0.00 in0.0 mm 0.04 in1.0 mm
03:07 PM 65.1°F18.4°C 58.5°F14.7°C 79% 4.7 mph N7.6 kmh N 7.6 mph12.2 kmh 29.87 in1011.5 mb - 0.00 in0.0 mm 0.04 in1.0 mm
03:12 PM 65.3°F18.5°C 58.3°F14.6°C 78% 4.3 mph NW6.9 kmh NW 8.1 mph13.0 kmh 29.87 in1011.5 mb - 0.00 in0.0 mm 0.04 in1.0 mm
03:17 PM 65.3°F18.5°C 57.9°F14.4°C 77% 2.7 mph NW4.3 kmh NW 5.8 mph9.3 kmh 29.87 in1011.5 mb - 0.00 in0.0 mm 0.04 in1.0 mm
03:22 PM 65.7°F18.7°C 58.3°F14.6°C 77% 5.1 mph NW8.2 kmh NW 9.2 mph14.8 kmh 29.87 in1011.5 mb - 0.00 in0.0 mm 0.04 in1.0 mm
03:27 PM 65.7°F18.7°C 58.3°F14.6°C 77% 4.9 mph W7.9 kmh W 8.7 mph14.0 kmh 29.87 in1011.5 mb - 0.00 in0.0 mm 0.04 in1.0 mm
03:32 PM 65.5°F18.6°C 58.1°F14.5°C 77% 4.5 mph NW7.2 kmh NW 8.5 mph13.7 kmh 29.87 in1011.5 mb - 0.00 in0.0 mm 0.04 in1.0 mm
03:37 PM 65.3°F18.5°C 58.3°F14.6°C 78% 6.3 mph WNW10.1 kmh WNW 11.4 mph18.3 kmh 29.87 in1011.5 mb - 0.00 in0.0 mm 0.04 in1.0 mm
03:42 PM 65.7°F18.7°C 58.6°F14.8°C 78% 6.9 mph WNW11.1 kmh WNW 10.7 mph17.2 kmh 29.87 in1011.5 mb - 0.00 in0.0 mm 0.04 in1.0 mm
03:47 PM 66.2°F19.0°C 59.2°F15.1°C 78% 5.4 mph NW8.7 kmh NW 11.4 mph18.3 kmh 29.87 in1011.5 mb - 0.00 in0.0 mm 0.04 in1.0 mm
03:52 PM 66.2°F19.0°C 58.5°F14.7°C 76% 3.8 mph WNW6.1 kmh WNW 8.3 mph13.4 kmh 29.87 in1011.5 mb - 0.00 in0.0 mm 0.04 in1.0 mm
03:57 PM 66.0°F18.9°C 57.6°F14.2°C 74% 3.8 mph W6.1 kmh W 10.5 mph16.9 kmh 29.87 in1011.5 mb - 0.00 in0.0 mm 0.04 in1.0 mm
04:02 PM 65.8°F18.8°C 57.7°F14.3°C 75% 6.5 mph WSW10.5 kmh WSW 15.0 mph24.1 kmh 29.87 in1011.5 mb - 0.00 in0.0 mm 0.04 in1.0 mm
04:07 PM 65.7°F18.7°C 57.9°F14.4°C 76% 7.2 mph SW11.6 kmh SW 15.9 mph25.6 kmh 29.87 in1011.5 mb - 0.00 in0.0 mm 0.04 in1.0 mm
04:12 PM 66.0°F18.9°C 58.3°F14.6°C 76% 6.9 mph W11.1 kmh W 14.8 mph23.8 kmh 29.87 in1011.5 mb - 0.00 in0.0 mm 0.04 in1.0 mm
04:17 PM 66.6°F19.2°C 58.1°F14.5°C 74% 4.7 mph WNW7.6 kmh WNW 11.2 mph18.0 kmh 29.87 in1011.5 mb - 0.00 in0.0 mm 0.04 in1.0 mm
04:22 PM 66.7°F19.3°C 57.0°F13.9°C 71% 5.8 mph WNW9.3 kmh WNW 11.9 mph19.2 kmh 29.84 in1010.5 mb - 0.00 in0.0 mm 0.04 in1.0 mm
04:27 PM 66.7°F19.3°C 56.3°F13.5°C 69% 7.4 mph SW11.9 kmh SW 16.6 mph26.7 kmh 29.84 in1010.5 mb - 0.00 in0.0 mm 0.04 in1.0 mm
04:32 PM 67.3°F19.6°C 57.2°F14.0°C 70% 8.5 mph WNW13.7 kmh WNW 19.0 mph30.6 kmh 29.84 in1010.5 mb - 0.00 in0.0 mm 0.04 in1.0 mm
04:37 PM 67.6°F19.8°C 57.9°F14.4°C 71% 11.6 mph WNW18.7 kmh WNW 24.6 mph39.6 kmh 29.84 in1010.5 mb - 0.00 in0.0 mm 0.04 in1.0 mm
04:42 PM 67.6°F19.8°C 57.2°F14.0°C 69% 9.4 mph SW15.1 kmh SW 26.4 mph42.5 kmh 29.84 in1010.5 mb - 0.00 in0.0 mm 0.04 in1.0 mm
04:47 PM 67.6°F19.8°C 56.3°F13.5°C 67% 7.8 mph WSW12.6 kmh WSW 12.8 mph20.6 kmh 29.84 in1010.5 mb - 0.00 in0.0 mm 0.04 in1.0 mm
04:52 PM 67.8°F19.9°C 56.5°F13.6°C 67% 8.9 mph SW14.3 kmh SW 21.7 mph34.9 kmh 29.84 in1010.5 mb - 0.00 in0.0 mm 0.04 in1.0 mm
04:57 PM 67.8°F19.9°C 56.5°F13.6°C 67% 11.2 mph WSW18.0 kmh WSW 24.2 mph38.9 kmh 29.84 in1010.5 mb - 0.00 in0.0 mm 0.04 in1.0 mm
05:02 PM 67.5°F19.7°C 56.1°F13.4°C 67% 10.7 mph W17.2 kmh W 21.5 mph34.6 kmh 29.84 in1010.5 mb - 0.00 in0.0 mm 0.04 in1.0 mm
05:07 PM 67.3°F19.6°C 56.3°F13.5°C 68% 9.4 mph SW15.1 kmh SW 19.7 mph31.7 kmh 29.84 in1010.5 mb - 0.00 in0.0 mm 0.04 in1.0 mm
05:12 PM 66.9°F19.4°C 55.9°F13.3°C 68% 9.4 mph WSW15.1 kmh WSW 23.0 mph37.0 kmh 29.84 in1010.5 mb - 0.00 in0.0 mm 0.04 in1.0 mm
05:17 PM 67.1°F19.5°C 56.1°F13.4°C 68% 9.8 mph W15.8 kmh W 21.0 mph33.8 kmh 29.84 in1010.5 mb - 0.00 in0.0 mm 0.04 in1.0 mm
05:22 PM 67.1°F19.5°C 55.8°F13.2°C 67% 8.1 mph WSW13.0 kmh WSW 18.3 mph29.5 kmh 29.84 in1010.5 mb - 0.00 in0.0 mm 0.04 in1.0 mm
05:27 PM 67.1°F19.5°C 55.8°F13.2°C 67% 11.2 mph WSW18.0 kmh WSW 22.6 mph36.4 kmh 29.84 in1010.5 mb - 0.00 in0.0 mm 0.04 in1.0 mm
05:32 PM 67.1°F19.5°C 55.8°F13.2°C 67% 10.7 mph SE17.2 kmh SE 23.5 mph37.8 kmh 29.84 in1010.5 mb - 0.00 in0.0 mm 0.04 in1.0 mm
05:37 PM 66.9°F19.4°C 55.2°F12.9°C 66% 12.1 mph W19.5 kmh W 22.8 mph36.7 kmh 29.84 in1010.5 mb - 0.00 in0.0 mm 0.04 in1.0 mm
05:42 PM 66.7°F19.3°C 55.0°F12.8°C 66% 11.0 mph WSW17.7 kmh WSW 19.5 mph31.4 kmh 29.84 in1010.5 mb - 0.00 in0.0 mm 0.04 in1.0 mm
05:47 PM 66.6°F19.2°C 54.9°F12.7°C 66% 12.1 mph WNW19.5 kmh WNW 23.0 mph37.0 kmh 29.84 in1010.5 mb - 0.00 in0.0 mm 0.04 in1.0 mm
05:52 PM 66.2°F19.0°C 55.4°F13.0°C 68% 13.0 mph W20.9 kmh W 28.6 mph46.0 kmh 29.87 in1011.5 mb - 0.00 in0.0 mm 0.04 in1.0 mm
05:57 PM 65.8°F18.8°C 55.8°F13.2°C 70% 12.1 mph W19.5 kmh W 22.4 mph36.0 kmh 29.87 in1011.5 mb - 0.00 in0.0 mm 0.04 in1.0 mm
06:02 PM 65.1°F18.4°C 56.3°F13.5°C 73% 10.5 mph WNW16.9 kmh WNW 21.0 mph33.8 kmh 29.87 in1011.5 mb - 0.00 in0.0 mm 0.04 in1.0 mm
06:07 PM 64.8°F18.2°C 56.3°F13.5°C 74% 13.9 mph WSW22.4 kmh WSW 23.9 mph38.5 kmh 29.87 in1011.5 mb - 0.00 in0.0 mm 0.04 in1.0 mm
06:12 PM 64.9°F18.3°C 56.8°F13.8°C 75% 11.0 mph W17.7 kmh W 26.6 mph42.8 kmh 29.87 in1011.5 mb - 0.00 in0.0 mm 0.04 in1.0 mm
06:17 PM 64.9°F18.3°C 56.5°F13.6°C 74% 12.8 mph WSW20.6 kmh WSW 23.0 mph37.0 kmh 29.87 in1011.5 mb - 0.00 in0.0 mm 0.04 in1.0 mm
06:22 PM 64.8°F18.2°C 56.3°F13.5°C 74% 9.4 mph WNW15.1 kmh WNW 18.3 mph29.5 kmh 29.87 in1011.5 mb - 0.00 in0.0 mm 0.04 in1.0 mm
06:27 PM 64.6°F18.1°C 56.5°F13.6°C 75% 12.3 mph SW19.8 kmh SW 24.6 mph39.6 kmh 29.87 in1011.5 mb - 0.00 in0.0 mm 0.04 in1.0 mm
06:32 PM 64.2°F17.9°C 56.1°F13.4°C 75% 10.7 mph WSW17.2 kmh WSW 26.6 mph42.8 kmh 29.87 in1011.5 mb - 0.00 in0.0 mm 0.04 in1.0 mm
06:37 PM 64.2°F17.9°C 56.5°F13.6°C 76% 11.4 mph W18.3 kmh W 20.1 mph32.3 kmh 29.87 in1011.5 mb - 0.00 in0.0 mm 0.04 in1.0 mm
06:42 PM 64.2°F17.9°C 56.5°F13.6°C 76% 12.1 mph W19.5 kmh W 18.8 mph30.3 kmh 29.87 in1011.5 mb - 0.00 in0.0 mm 0.04 in1.0 mm
06:47 PM 64.4°F18.0°C 56.3°F13.5°C 75% 6.9 mph W11.1 kmh W 15.2 mph24.5 kmh 29.87 in1011.5 mb - 0.00 in0.0 mm 0.04 in1.0 mm
06:52 PM 64.4°F18.0°C 55.9°F13.3°C 74% 6.5 mph NW10.5 kmh NW 6.5 mph10.5 kmh 29.90 in1012.5 mb - 0.00 in0.0 mm 0.04 in1.0 mm
06:57 PM 64.4°F18.0°C 55.6°F13.1°C 73% 8.7 mph NW14.0 kmh NW 19.7 mph31.7 kmh 29.90 in1012.5 mb - 0.00 in0.0 mm 0.04 in1.0 mm
07:02 PM 64.2°F17.9°C 55.4°F13.0°C 73% 9.4 mph NW15.1 kmh NW 17.0 mph27.4 kmh 29.90 in1012.5 mb - 0.00 in0.0 mm 0.04 in1.0 mm
07:07 PM 64.2°F17.9°C 55.8°F13.2°C 74% 9.6 mph WNW15.4 kmh WNW 17.9 mph28.8 kmh 29.90 in1012.5 mb - 0.00 in0.0 mm 0.04 in1.0 mm
07:12 PM 64.0°F17.8°C 55.6°F13.1°C 74% 8.5 mph W13.7 kmh W 19.2 mph30.9 kmh 29.90 in1012.5 mb - 0.00 in0.0 mm 0.04 in1.0 mm
07:17 PM 64.0°F17.8°C 55.9°F13.3°C 75% 8.1 mph WNW13.0 kmh WNW 16.3 mph26.2 kmh 29.90 in1012.5 mb - 0.00 in0.0 mm 0.04 in1.0 mm
07:22 PM 64.0°F17.8°C 55.9°F13.3°C 75% 5.4 mph W8.7 kmh W 14.8 mph23.8 kmh 29.93 in1013.5 mb - 0.00 in0.0 mm 0.04 in1.0 mm
07:27 PM 64.0°F17.8°C 55.6°F13.1°C 74% 5.8 mph WNW9.3 kmh WNW 12.5 mph20.1 kmh 29.93 in1013.5 mb - 0.00 in0.0 mm 0.04 in1.0 mm
07:32 PM 64.0°F17.8°C 55.9°F13.3°C 75% 6.5 mph NW10.5 kmh NW 13.2 mph21.2 kmh 29.93 in1013.5 mb - 0.00 in0.0 mm 0.04 in1.0 mm
07:37 PM 63.9°F17.7°C 55.8°F13.2°C 75% 5.8 mph WSW9.3 kmh WSW 14.3 mph23.0 kmh 29.93 in1013.5 mb - 0.00 in0.0 mm 0.04 in1.0 mm
07:42 PM 63.9°F17.7°C 55.8°F13.2°C 75% 6.0 mph WSW9.7 kmh WSW 11.9 mph19.2 kmh 29.93 in1013.5 mb - 0.00 in0.0 mm 0.04 in1.0 mm
07:47 PM 63.7°F17.6°C 56.3°F13.5°C 77% 5.1 mph W8.2 kmh W 5.1 mph8.2 kmh 29.93 in1013.5 mb - 0.00 in0.0 mm 0.04 in1.0 mm
07:52 PM 63.1°F17.3°C 56.1°F13.4°C 78% 5.6 mph WSW9.0 kmh WSW 13.4 mph21.6 kmh 29.93 in1013.5 mb - 0.00 in0.0 mm 0.04 in1.0 mm
07:57 PM 62.6°F17.0°C 55.9°F13.3°C 79% 5.4 mph WNW8.7 kmh WNW 9.6 mph15.4 kmh 29.93 in1013.5 mb - 0.00 in0.0 mm 0.08 in2.0 mm
08:02 PM 62.2°F16.8°C 56.3°F13.5°C 81% 11.0 mph W17.7 kmh W 18.1 mph29.1 kmh 29.93 in1013.5 mb - 0.00 in0.0 mm 0.08 in2.0 mm
08:07 PM 62.1°F16.7°C 56.8°F13.8°C 83% 8.7 mph NW14.0 kmh NW 15.4 mph24.8 kmh 29.96 in1014.6 mb - 0.00 in0.0 mm 0.08 in2.0 mm
08:12 PM 62.1°F16.7°C 56.8°F13.8°C 83% 3.8 mph WNW6.1 kmh WNW 8.3 mph13.4 kmh 29.96 in1014.6 mb - 0.00 in0.0 mm 0.08 in2.0 mm
08:17 PM 62.2°F16.8°C 57.0°F13.9°C 83% 6.0 mph W9.7 kmh W 12.5 mph20.1 kmh 29.96 in1014.6 mb - 0.00 in0.0 mm 0.08 in2.0 mm
08:22 PM 62.4°F16.9°C 57.2°F14.0°C 83% 6.0 mph WNW9.7 kmh WNW 10.5 mph16.9 kmh 29.93 in1013.5 mb - 0.00 in0.0 mm 0.08 in2.0 mm
08:27 PM 62.4°F16.9°C 57.2°F14.0°C 83% 6.5 mph WSW10.5 kmh WSW 12.8 mph20.6 kmh 29.93 in1013.5 mb - 0.00 in0.0 mm 0.08 in2.0 mm
08:32 PM 62.4°F16.9°C 57.2°F14.0°C 83% 7.6 mph W12.2 kmh W 17.7 mph28.5 kmh 29.93 in1013.5 mb - 0.00 in0.0 mm 0.08 in2.0 mm
08:37 PM 62.6°F17.0°C 57.0°F13.9°C 82% 7.6 mph W12.2 kmh W 13.6 mph21.9 kmh 29.96 in1014.6 mb - 0.00 in0.0 mm 0.08 in2.0 mm
08:42 PM 62.4°F16.9°C 57.2°F14.0°C 83% 7.4 mph W11.9 kmh W 14.8 mph23.8 kmh 29.96 in1014.6 mb - 0.03 in0.8 mm 0.12 in3.0 mm
08:47 PM 61.2°F16.2°C 55.6°F13.1°C 82% 8.3 mph W13.4 kmh W 8.3 mph13.4 kmh 29.96 in1014.6 mb - 0.74 in18.8 mm 0.16 in4.1 mm
08:52 PM 60.6°F15.9°C 55.4°F13.0°C 83% 7.6 mph NW12.2 kmh NW 18.8 mph30.3 kmh 29.96 in1014.6 mb - 0.74 in18.8 mm 0.20 in5.1 mm
08:57 PM 60.3°F15.7°C 55.4°F13.0°C 84% 8.1 mph W13.0 kmh W 20.4 mph32.8 kmh 29.96 in1014.6 mb - 0.74 in18.8 mm 0.20 in5.1 mm
09:02 PM 59.5°F15.3°C 55.0°F12.8°C 85% 9.2 mph W14.8 kmh W 17.4 mph28.0 kmh 29.96 in1014.6 mb - 0.74 in18.8 mm 0.20 in5.1 mm
09:07 PM 59.4°F15.2°C 54.9°F12.7°C 85% 6.0 mph WSW9.7 kmh WSW 15.2 mph24.5 kmh 29.96 in1014.6 mb - 0.74 in18.8 mm 0.20 in5.1 mm
09:12 PM 59.2°F15.1°C 54.7°F12.6°C 85% 7.6 mph W12.2 kmh W 15.7 mph25.3 kmh 29.96 in1014.6 mb - 0.74 in18.8 mm 0.20 in5.1 mm
09:17 PM 59.0°F15.0°C 54.5°F12.5°C 85% 6.0 mph W9.7 kmh W 11.6 mph18.7 kmh 29.96 in1014.6 mb - 0.74 in18.8 mm 0.20 in5.1 mm
09:22 PM 58.8°F14.9°C 54.3°F12.4°C 85% 5.4 mph SW8.7 kmh SW 8.7 mph14.0 kmh 29.93 in1013.5 mb - 0.74 in18.8 mm 0.20 in5.1 mm
09:27 PM 58.8°F14.9°C 54.3°F12.4°C 85% 4.9 mph SW7.9 kmh SW 9.2 mph14.8 kmh 29.93 in1013.5 mb - 0.74 in18.8 mm 0.20 in5.1 mm
09:32 PM 58.6°F14.8°C 54.1°F12.3°C 85% 3.1 mph SW5.0 kmh SW 5.6 mph9.0 kmh 29.93 in1013.5 mb - 0.74 in18.8 mm 0.20 in5.1 mm
09:37 PM 58.6°F14.8°C 54.1°F12.3°C 85% 2.5 mph SW4.0 kmh SW 4.9 mph7.9 kmh 29.96 in1014.6 mb - 0.74 in18.8 mm 0.20 in5.1 mm
09:42 PM 58.6°F14.8°C 54.5°F12.5°C 86% 3.1 mph WSW5.0 kmh WSW 4.5 mph7.2 kmh 29.96 in1014.6 mb - 0.74 in18.8 mm 0.20 in5.1 mm
09:47 PM 58.6°F14.8°C 54.5°F12.5°C 86% 2.0 mph S3.2 kmh S 5.4 mph8.7 kmh 29.96 in1014.6 mb - 0.74 in18.8 mm 0.20 in5.1 mm
09:52 PM 59.0°F15.0°C 54.9°F12.7°C 86% 3.1 mph SW5.0 kmh SW 5.6 mph9.0 kmh 29.96 in1014.6 mb - 0.74 in18.8 mm 0.20 in5.1 mm
09:57 PM 59.4°F15.2°C 55.6°F13.1°C 87% 1.8 mph W2.9 kmh W 4.5 mph7.2 kmh 29.96 in1014.6 mb - 0.74 in18.8 mm 0.20 in5.1 mm
10:02 PM 59.7°F15.4°C 56.5°F13.6°C 89% 1.8 mph SSW2.9 kmh SSW 3.6 mph5.8 kmh 29.96 in1014.6 mb - 0.74 in18.8 mm 0.20 in5.1 mm
10:07 PM 59.9°F15.5°C 56.3°F13.5°C 88% 2.7 mph SW4.3 kmh SW 6.3 mph10.1 kmh 29.96 in1014.6 mb - 0.74 in18.8 mm 0.20 in5.1 mm
10:12 PM 60.4°F15.8°C 57.2°F14.0°C 89% 3.6 mph WSW5.8 kmh WSW 7.8 mph12.6 kmh 29.96 in1014.6 mb - 0.74 in18.8 mm 0.20 in5.1 mm
10:17 PM 60.8°F16.0°C 57.2°F14.0°C 88% 4.7 mph SSW7.6 kmh SSW 10.1 mph16.3 kmh 29.96 in1014.6 mb - 0.74 in18.8 mm 0.20 in5.1 mm
10:22 PM 60.8°F16.0°C 57.2°F14.0°C 88% 6.9 mph WSW11.1 kmh WSW 15.4 mph24.8 kmh 29.96 in1014.6 mb - 0.74 in18.8 mm 0.20 in5.1 mm
10:27 PM 61.0°F16.1°C 57.4°F14.1°C 88% 4.9 mph W7.9 kmh W 8.5 mph13.7 kmh 29.96 in1014.6 mb - 0.74 in18.8 mm 0.20 in5.1 mm
10:32 PM 61.2°F16.2°C 57.0°F13.9°C 86% 4.7 mph WSW7.6 kmh WSW 10.3 mph16.6 kmh 29.96 in1014.6 mb - 0.74 in18.8 mm 0.20 in5.1 mm
10:37 PM 61.2°F16.2°C 57.0°F13.9°C 86% 5.4 mph W8.7 kmh W 14.8 mph23.8 kmh 29.96 in1014.6 mb - 0.74 in18.8 mm 0.20 in5.1 mm
10:42 PM 61.3°F16.3°C 57.2°F14.0°C 86% 7.2 mph W11.6 kmh W 13.2 mph21.2 kmh 29.96 in1014.6 mb - 0.74 in18.8 mm 0.20 in5.1 mm
10:47 PM 61.2°F16.2°C 57.0°F13.9°C 86% 4.5 mph WSW7.2 kmh WSW 13.0 mph20.9 kmh 29.96 in1014.6 mb - 0.74 in18.8 mm 0.20 in5.1 mm
10:52 PM 61.3°F16.3°C 56.8°F13.8°C 85% 5.8 mph WSW9.3 kmh WSW 12.3 mph19.8 kmh 29.96 in1014.6 mb - 0.74 in18.8 mm 0.20 in5.1 mm
10:57 PM 61.5°F16.4°C 57.0°F13.9°C 85% 4.7 mph WNW7.6 kmh WNW 11.6 mph18.7 kmh 29.96 in1014.6 mb - 0.00 in0.0 mm 0.20 in5.1 mm
11:02 PM 61.5°F16.4°C 56.7°F13.7°C 84% 6.9 mph W11.1 kmh W 14.3 mph23.0 kmh 29.96 in1014.6 mb - 0.00 in0.0 mm 0.20 in5.1 mm
11:07 PM 61.3°F16.3°C 56.8°F13.8°C 85% 8.7 mph SW14.0 kmh SW 17.7 mph28.5 kmh 29.96 in1014.6 mb - 0.00 in0.0 mm 19.27 in489.5 mm
11:12 PM 61.3°F16.3°C 56.5°F13.6°C 84% 8.5 mph SW13.7 kmh SW 17.4 mph28.0 kmh 29.96 in1014.6 mb - 0.00 in0.0 mm 19.27 in489.5 mm
11:17 PM 61.3°F16.3°C 56.8°F13.8°C 85% 7.4 mph W11.9 kmh W 18.6 mph29.9 kmh 29.96 in1014.6 mb - 0.00 in0.0 mm 19.27 in489.5 mm
11:22 PM 61.3°F16.3°C 56.8°F13.8°C 85% 8.9 mph W14.3 kmh W 20.4 mph32.8 kmh 29.99 in1015.6 mb - 0.00 in0.0 mm 0.05 in1.3 mm
11:27 PM 61.2°F16.2°C 56.7°F13.7°C 85% 6.7 mph WNW10.8 kmh WNW 13.4 mph21.6 kmh 29.99 in1015.6 mb - 0.00 in0.0 mm 0.05 in1.3 mm
11:32 PM 61.2°F16.2°C 56.7°F13.7°C 85% 7.8 mph WSW12.6 kmh WSW 14.5 mph23.3 kmh 29.99 in1015.6 mb - 0.00 in0.0 mm 0.05 in1.3 mm
11:37 PM 61.2°F16.2°C 56.7°F13.7°C 85% 9.4 mph WSW15.1 kmh WSW 19.2 mph30.9 kmh 29.99 in1015.6 mb - 0.00 in0.0 mm 0.05 in1.3 mm
11:42 PM 61.2°F16.2°C 56.7°F13.7°C 85% 7.2 mph WSW11.6 kmh WSW 18.1 mph29.1 kmh 29.99 in1015.6 mb - 0.00 in0.0 mm 0.05 in1.3 mm
11:47 PM 61.2°F16.2°C 56.7°F13.7°C 85% 7.4 mph WNW11.9 kmh WNW 15.9 mph25.6 kmh 29.99 in1015.6 mb - 0.00 in0.0 mm 0.05 in1.3 mm
11:52 PM 61.0°F16.1°C 56.8°F13.8°C 86% 8.5 mph W13.7 kmh W 19.0 mph30.6 kmh 29.99 in1015.6 mb - 0.00 in0.0 mm 0.05 in1.3 mm
11:57 PM 61.2°F16.2°C 57.0°F13.9°C 86% 6.5 mph W10.5 kmh W 13.0 mph20.9 kmh 29.99 in1015.6 mb - 0.00 in0.0 mm 0.05 in1.3 mm